Time;durP1;ratioP1;P1;durP2;ratioP2;P2;SDS_P1;SDS_P2;PMS_P1;PMS_P2;Temp;Humidity;BMP_temperature;BMP_pressure;BME280_temperature;BME280_humidity;BME280_pressure;Samples;Min_cycle;Max_cycle;Signal;HPM_P1;HPM_P2
2024/01/26 00:00:43;;;;;;;6.78;3.83;;;;;;;3.70;48.40;94191.09;5073240;28;20134;-69
2024/01/26 00:03:09;;;;;;;11.88;3.97;;;;;;;3.39;48.68;94184.97;5073121;28;20041;-69
2024/01/26 00:05:34;;;;;;;7.78;3.55;;;;;;;3.52;48.71;94185.53;5072928;28;20107;-69
2024/01/26 00:07:59;;;;;;;9.10;3.83;;;;;;;3.30;49.14;94178.63;5073072;28;20608;-69
2024/01/26 00:10:25;;;;;;;10.63;5.10;;;;;;;3.44;48.63;94192.06;5073378;28;20472;-69
2024/01/26 00:12:50;;;;;;;8.98;4.32;;;;;;;3.39;49.21;94211.25;5072668;28;20037;-69
2024/01/26 00:15:16;;;;;;;12.85;4.30;;;;;;;3.19;49.20;94189.34;5072953;28;20107;-69
2024/01/26 00:17:41;;;;;;;10.32;4.32;;;;;;;3.27;49.09;94187.03;5072904;28;20028;-69
2024/01/26 00:20:09;;;;;;;10.65;4.28;;;;;;;3.44;48.49;94193.91;5073010;28;20041;-69
2024/01/26 00:22:34;;;;;;;9.25;4.25;;;;;;;3.29;48.81;94190.19;5071673;28;20388;-69
2024/01/26 00:25:00;;;;;;;7.78;3.70;;;;;;;3.33;48.71;94196.50;5073380;28;20021;-69
2024/01/26 00:27:26;;;;;;;15.63;4.15;;;;;;;3.19;49.16;94195.41;5072937;28;20036;-69
2024/01/26 00:29:52;;;;;;;8.02;4.05;;;;;;;3.18;49.04;94199.09;5071267;28;20029;-69
2024/01/26 00:32:17;;;;;;;9.13;3.53;;;;;;;3.17;49.11;94200.16;5072433;28;20040;-69
2024/01/26 00:34:43;;;;;;;10.10;3.65;;;;;;;3.15;48.60;94199.59;5072433;28;20118;-69
2024/01/26 00:37:08;;;;;;;7.15;3.78;;;;;;;2.90;49.23;94194.22;5072542;28;20027;-69
2024/01/26 00:39:33;;;;;;;12.15;3.58;;;;;;;2.78;49.88;94209.41;5072678;28;20060;-69
2024/01/26 00:41:59;;;;;;;11.23;3.65;;;;;;;2.82;49.42;94199.97;5072679;28;20113;-69
2024/01/26 00:44:24;;;;;;;9.18;2.97;;;;;;;2.86;49.42;94201.03;5071939;28;20032;-68
2024/01/26 00:46:50;;;;;;;10.40;3.42;;;;;;;2.96;49.11;94214.22;5072217;28;20471;-69
2024/01/26 00:49:15;;;;;;;10.38;4.32;;;;;;;2.67;49.13;94184.13;5071601;28;20050;-69
2024/01/26 00:51:41;;;;;;;11.00;3.42;;;;;;;2.73;49.16;94191.00;5071951;28;20563;-69
2024/01/26 00:54:06;;;;;;;5.10;3.65;;;;;;;2.73;49.24;94185.75;5072156;28;20609;-69
2024/01/26 00:56:31;;;;;;;8.82;2.80;;;;;;;2.75;48.89;94189.69;5072500;28;20455;-69
2024/01/26 00:58:57;;;;;;;12.70;3.42;;;;;;;2.67;49.15;94199.91;5072275;28;20071;-69
2024/01/26 01:01:23;;;;;;;5.55;2.55;;;;;;;2.35;49.22;94177.09;5071042;28;20553;-69
2024/01/26 01:03:49;;;;;;;8.35;2.42;;;;;;;2.59;49.29;94200.38;5071991;28;20056;-69
2024/01/26 01:06:15;;;;;;;9.98;3.03;;;;;;;2.41;49.12;94186.59;5071739;28;20444;-69
2024/01/26 01:08:40;;;;;;;5.22;2.70;;;;;;;2.48;49.29;94189.81;5071589;28;20033;-69
2024/01/26 01:11:06;;;;;;;10.00;2.83;;;;;;;2.39;49.40;94186.09;5071945;28;20506;-69
2024/01/26 01:13:32;;;;;;;7.32;2.90;;;;;;;2.16;49.86;94186.41;5072404;28;20017;-69
2024/01/26 01:16:00;;;;;;;6.10;2.72;;;;;;;2.20;49.97;94184.91;5071730;28;20029;-69
2024/01/26 01:18:26;;;;;;;9.20;3.03;;;;;;;2.13;50.31;94192.19;5072010;28;20514;-69
2024/01/26 01:20:51;;;;;;;8.60;3.03;;;;;;;2.06;50.32;94175.84;5071737;28;20028;-69
2024/01/26 01:23:17;;;;;;;8.65;3.35;;;;;;;2.09;50.51;94186.66;5071578;28;20033;-69
2024/01/26 01:25:43;;;;;;;8.40;4.13;;;;;;;2.21;50.21;94168.09;5071633;28;20025;-70
2024/01/26 01:28:09;;;;;;;6.88;3.45;;;;;;;2.09;50.34;94181.41;5072210;28;20012;-69
2024/01/26 01:30:34;;;;;;;5.22;3.03;;;;;;;1.93;50.64;94150.84;5071431;28;20135;-69
2024/01/26 01:33:00;;;;;;;7.05;3.38;;;;;;;2.12;50.66;94190.59;5071524;28;20131;-69
2024/01/26 01:35:25;;;;;;;6.90;2.83;;;;;;;2.02;50.84;94201.00;5071213;28;20503;-69
2024/01/26 01:37:51;;;;;;;8.65;3.05;;;;;;;2.01;51.07;94192.34;5071705;28;20099;-69
2024/01/26 01:40:16;;;;;;;6.13;3.58;;;;;;;1.81;51.45;94188.75;5071826;28;20024;-69
2024/01/26 01:42:42;;;;;;;7.03;3.30;;;;;;;1.84;51.57;94196.09;5071302;28;20294;-69
2024/01/26 01:45:15;;;;;;;12.57;3.08;;;;;;;1.99;51.59;94204.94;5071095;28;20032;-69
2024/01/26 01:47:43;;;;;;;11.18;3.13;;;;;;;1.74;51.91;94194.19;5071188;28;20086;-69
2024/01/26 01:50:09;;;;;;;8.43;3.95;;;;;;;1.81;51.83;94201.88;5071260;28;20085;-69
2024/01/26 01:52:43;;;;;;;10.25;3.05;;;;;;;1.61;52.37;94215.56;5071433;28;20070;-69
2024/01/26 01:55:10;;;;;;;8.80;3.42;;;;;;;1.57;52.38;94183.78;5072020;28;20017;-69
2024/01/26 01:57:40;;;;;;;11.05;3.53;;;;;;;1.77;52.42;94229.59;5070856;28;20036;-69
2024/01/26 02:00:07;;;;;;;6.68;3.97;;;;;;;1.82;51.97;94219.16;5071384;28;20082;-69
2024/01/26 02:02:32;;;;;;;12.13;4.35;;;;;;;1.92;51.85;94221.91;5071330;28;20535;-69
2024/01/26 02:04:58;;;;;;;11.98;2.75;;;;;;;1.90;51.80;94235.28;5071295;28;20124;-69
2024/01/26 02:07:24;;;;;;;12.90;3.28;;;;;;;1.88;52.06;94237.34;5071653;28;20037;-69
2024/01/26 02:09:50;;;;;;;5.82;3.25;;;;;;;1.82;51.75;94225.19;5071372;28;20085;-69
2024/01/26 02:12:15;;;;;;;8.73;4.60;;;;;;;1.75;51.95;94226.44;5071035;28;20036;-68
2024/01/26 02:14:41;;;;;;;9.68;3.78;;;;;;;1.75;51.70;94215.97;5071177;28;20078;-69
2024/01/26 02:17:06;;;;;;;9.15;4.15;;;;;;;1.83;51.08;94205.81;5071197;28;20666;-69
2024/01/26 02:19:33;;;;;;;5.50;3.00;;;;;;;2.00;50.68;94219.66;5071290;28;20077;-69
2024/01/26 02:21:58;;;;;;;7.72;3.10;;;;;;;1.87;50.87;94225.28;5071001;28;20119;-69
2024/01/26 02:24:24;;;;;;;14.77;3.60;;;;;;;1.78;51.13;94215.44;5070980;28;20124;-69
2024/01/26 02:26:49;;;;;;;7.85;2.72;;;;;;;1.83;51.11;94220.75;5070675;28;20120;-69
2024/01/26 02:29:15;;;;;;;9.32;3.92;;;;;;;1.86;50.74;94228.94;5070923;28;20032;-69
2024/01/26 02:31:41;;;;;;;6.15;2.65;;;;;;;1.95;50.69;94226.69;5070880;28;20395;-68
2024/01/26 02:34:12;;;;;;;9.88;2.72;;;;;;;2.06;50.58;94228.31;5070204;28;20391;-69
2024/01/26 02:36:38;;;;;;;8.82;3.65;;;;;;;1.90;50.65;94214.31;5070788;28;20037;-69
2024/01/26 02:39:05;;;;;;;7.55;3.80;;;;;;;2.09;50.35;94212.09;5070962;28;20039;-69
2024/01/26 02:41:32;;;;;;;4.57;2.60;;;;;;;2.06;50.00;94199.47;5070584;28;20029;-69
2024/01/26 02:43:57;;;;;;;9.57;2.67;;;;;;;2.04;50.12;94215.47;5070702;28;20033;-69
2024/01/26 02:46:23;;;;;;;6.82;2.65;;;;;;;1.99;50.11;94219.88;5071154;28;20032;-69
2024/01/26 02:48:48;;;;;;;10.75;3.45;;;;;;;1.95;49.95;94195.19;5070616;28;20024;-69
2024/01/26 02:51:13;;;;;;;4.75;2.97;;;;;;;1.99;50.12;94235.63;5070639;28;20045;-69
2024/01/26 02:53:40;;;;;;;10.25;3.15;;;;;;;2.03;50.35;94234.09;5070054;28;20060;-69
2024/01/26 02:56:07;;;;;;;5.85;2.53;;;;;;;1.97;50.33;94227.19;5069427;28;20320;-69
2024/01/26 02:58:32;;;;;;;8.00;3.55;;;;;;;2.08;50.20;94227.03;5071237;28;20032;-69
2024/01/26 03:00:58;;;;;;;9.55;3.22;;;;;;;2.10;50.27;94245.16;5070737;28;20119;-69
2024/01/26 03:03:23;;;;;;;5.70;3.13;;;;;;;2.26;49.95;94238.19;5070638;28;20491;-69
2024/01/26 03:05:49;;;;;;;11.43;3.63;;;;;;;2.23;50.02;94254.44;5070323;28;20066;-69
2024/01/26 03:08:15;;;;;;;7.82;2.50;;;;;;;2.21;49.96;94236.31;5071487;28;20044;-69
2024/01/26 03:10:40;;;;;;;7.88;2.83;;;;;;;2.19;49.97;94235.00;5074663;28;20016;-69
2024/01/26 03:13:06;;;;;;;6.35;2.90;;;;;;;2.27;49.73;94239.78;5073688;28;20110;-69
2024/01/26 03:15:31;;;;;;;8.63;2.95;;;;;;;2.17;50.01;94251.00;5074652;28;20407;-69
2024/01/26 03:17:57;;;;;;;9.55;4.00;;;;;;;2.02;50.49;94233.28;5074685;28;20040;-68
2024/01/26 03:20:22;;;;;;;6.13;2.22;;;;;;;2.25;50.33;94247.94;5074563;28;20522;-69
2024/01/26 03:22:47;;;;;;;8.57;3.75;;;;;;;2.21;49.68;94220.56;5074441;28;20111;-69
2024/01/26 03:25:13;;;;;;;9.20;2.75;;;;;;;2.40;49.53;94234.91;5074857;28;20090;-69
2024/01/26 03:27:39;;;;;;;7.82;3.10;;;;;;;2.46;49.48;94243.59;5074245;28;20052;-69
2024/01/26 03:30:05;;;;;;;13.05;3.30;;;;;;;2.50;49.62;94250.72;5074426;28;20111;-69
2024/01/26 03:32:31;;;;;;;9.27;2.97;;;;;;;2.48;49.67;94255.44;5074072;28;20032;-69
2024/01/26 03:34:56;;;;;;;13.20;5.95;;;;;;;2.57;49.42;94226.88;5074367;28;20028;-69
2024/01/26 03:37:22;;;;;;;5.90;3.08;;;;;;;2.57;49.29;94226.88;5074710;28;20036;-69
2024/01/26 03:39:48;;;;;;;10.82;2.40;;;;;;;2.57;49.59;94211.13;5072295;28;20420;-69
2024/01/26 03:42:13;;;;;;;6.38;2.70;;;;;;;2.43;49.72;94217.88;5074227;28;20072;-69
2024/01/26 03:44:40;;;;;;;10.73;2.95;;;;;;;2.48;49.25;94218.69;5074048;28;20037;-69
2024/01/26 03:47:05;;;;;;;5.38;3.42;;;;;;;2.54;49.57;94245.78;5073701;28;20056;-69
2024/01/26 03:49:31;;;;;;;8.60;3.35;;;;;;;2.54;49.31;94219.53;5074516;28;20047;-69
2024/01/26 03:51:56;;;;;;;11.45;3.25;;;;;;;2.25;49.60;94200.69;5073743;28;20056;-69
2024/01/26 03:54:22;;;;;;;9.68;3.30;;;;;;;2.44;49.61;94230.75;5073774;28;20036;-69
2024/01/26 03:56:47;;;;;;;9.95;3.03;;;;;;;2.37;49.54;94219.66;5073847;28;20037;-69
2024/01/26 03:59:13;;;;;;;8.13;2.78;;;;;;;2.48;49.40;94226.56;5073907;28;20436;-69
2024/01/26 04:01:39;;;;;;;5.95;2.53;;;;;;;2.30;49.61;94237.47;5073479;28;20024;-69
2024/01/26 04:04:04;;;;;;;11.30;2.80;;;;;;;2.24;49.70;94209.59;5072899;28;20016;-68
2024/01/26 04:06:30;;;;;;;9.27;3.13;;;;;;;2.19;49.75;94219.25;5073863;28;20056;-69
2024/01/26 04:08:56;;;;;;;13.68;3.15;;;;;;;2.24;49.61;94225.34;5073374;28;20407;-69
2024/01/26 04:11:21;;;;;;;7.35;2.90;;;;;;;2.33;49.75;94228.28;5073547;28;20040;-69
2024/01/26 04:13:47;;;;;;;5.88;2.45;;;;;;;2.40;49.25;94218.38;5073374;28;20039;-69
2024/01/26 04:16:12;;;;;;;6.78;2.80;;;;;;;2.57;48.88;94233.97;5074086;28;20020;-69
2024/01/26 04:18:38;;;;;;;8.15;3.03;;;;;;;2.59;48.58;94242.41;5072607;28;20060;-69
2024/01/26 04:21:04;;;;;;;9.07;2.95;;;;;;;2.52;48.68;94238.16;5073036;28;20035;-69
2024/01/26 04:23:29;;;;;;;9.38;2.20;;;;;;;2.45;48.62;94216.56;5072981;28;20109;-69
2024/01/26 04:25:55;;;;;;;8.77;3.20;;;;;;;2.74;48.08;94258.25;5073309;28;20052;-69
2024/01/26 04:28:20;;;;;;;6.13;2.58;;;;;;;2.58;48.56;94256.56;5073417;28;20016;-69
2024/01/26 04:30:46;;;;;;;5.07;2.70;;;;;;;2.38;48.90;94230.94;5073000;28;20537;-69
2024/01/26 04:33:11;;;;;;;5.45;2.35;;;;;;;2.44;48.57;94215.00;5071808;28;20037;-69
2024/01/26 04:35:37;;;;;;;6.10;2.45;;;;;;;2.55;48.41;94221.06;5071874;28;20055;-68
2024/01/26 04:38:02;;;;;;;8.20;2.67;;;;;;;2.39;48.43;94250.91;5067295;28;20032;-69
2024/01/26 04:40:28;;;;;;;5.95;2.40;;;;;;;2.62;48.08;94270.75;5085061;28;20029;-69
2024/01/26 04:42:54;;;;;;;8.75;3.60;;;;;;;2.65;48.06;94275.50;5071595;28;20021;-69
2024/01/26 04:45:19;;;;;;;5.63;2.85;;;;;;;2.40;48.59;94276.13;5071419;28;20039;-69
2024/01/26 04:47:45;;;;;;;7.40;2.63;;;;;;;2.25;49.07;94261.06;5072677;28;20120;-69
2024/01/26 04:50:10;;;;;;;9.90;3.58;;;;;;;2.23;48.55;94259.69;5072549;28;20035;-69
2024/01/26 04:52:36;;;;;;;8.35;2.63;;;;;;;2.23;48.62;94271.00;5072877;28;20024;-69
2024/01/26 04:55:02;;;;;;;8.18;3.70;;;;;;;2.17;48.83;94276.44;5073092;28;20052;-69
2024/01/26 04:57:27;;;;;;;10.45;3.88;;;;;;;2.13;49.46;94291.09;5072365;28;20411;-69
2024/01/26 04:59:53;;;;;;;14.63;4.05;;;;;;;2.21;49.46;94273.06;5072669;28;20635;-69
2024/01/26 05:02:18;;;;;;;5.68;2.35;;;;;;;2.21;49.78;94264.41;5072454;28;20506;-69
2024/01/26 05:04:44;;;;;;;10.25;2.50;;;;;;;2.26;48.98;94241.63;5072488;28;20494;-69
2024/01/26 05:07:10;;;;;;;6.28;2.78;;;;;;;2.34;49.51;94272.66;5072954;28;20483;-69
2024/01/26 05:09:35;;;;;;;5.57;3.20;;;;;;;2.21;49.91;94267.03;5072351;28;20053;-69
2024/01/26 05:12:01;;;;;;;10.10;3.00;;;;;;;2.24;49.87;94262.09;5072300;28;20063;-69
2024/01/26 05:14:26;;;;;;;4.25;2.63;;;;;;;2.10;49.95;94255.66;5072306;28;20556;-69
2024/01/26 05:16:52;;;;;;;7.90;3.25;;;;;;;2.21;49.44;94253.91;5071944;28;20024;-69
2024/01/26 05:19:17;;;;;;;7.90;3.72;;;;;;;2.18;48.98;94262.28;5072591;28;20025;-69
2024/01/26 05:21:43;;;;;;;3.75;2.50;;;;;;;2.27;49.28;94277.31;5072066;28;20081;-69
2024/01/26 05:24:09;;;;;;;9.27;3.17;;;;;;;2.27;48.96;94273.91;5072018;28;20120;-69
2024/01/26 05:26:38;;;;;;;6.65;3.25;;;;;;;2.19;49.45;94267.28;5072289;28;20036;-69
2024/01/26 05:29:03;;;;;;;9.00;3.40;;;;;;;2.19;49.09;94269.91;5072786;28;20150;-69
2024/01/26 05:31:29;;;;;;;5.95;3.00;;;;;;;2.36;48.69;94291.56;5071369;28;20492;-69
2024/01/26 05:33:54;;;;;;;8.10;2.88;;;;;;;2.04;48.59;94254.03;5071940;28;20098;-69
2024/01/26 05:36:20;;;;;;;8.65;2.72;;;;;;;2.33;48.37;94281.59;5072051;28;20705;-69
2024/01/26 05:38:45;;;;;;;7.03;3.28;;;;;;;2.33;48.56;94291.28;5071560;28;20043;-69
2024/01/26 05:41:12;;;;;;;10.13;3.42;;;;;;;2.27;48.57;94295.69;5071675;28;20020;-69
2024/01/26 05:43:38;;;;;;;9.82;2.90;;;;;;;1.96;49.31;94278.88;5071806;28;20021;-69
2024/01/26 05:46:03;;;;;;;4.20;3.30;;;;;;;2.19;48.71;94283.03;5071872;28;20016;-70
2024/01/26 05:48:29;;;;;;;8.10;3.40;;;;;;;2.11;48.77;94267.72;5071453;28;20029;-69
2024/01/26 05:50:54;;;;;;;6.65;3.30;;;;;;;2.23;48.56;94297.25;5070881;28;20052;-69
2024/01/26 05:53:20;;;;;;;10.23;4.70;;;;;;;1.92;49.67;94311.09;5069496;28;20033;-69
2024/01/26 05:55:45;;;;;;;8.38;3.25;;;;;;;2.21;49.04;94303.75;5071386;28;20034;-69
2024/01/26 05:58:11;;;;;;;5.72;3.22;;;;;;;2.10;49.20;94292.41;5071950;28;20025;-69
2024/01/26 06:00:36;;;;;;;7.20;3.22;;;;;;;1.91;49.61;94293.78;5070893;28;20032;-69
2024/01/26 06:03:02;;;;;;;10.70;3.83;;;;;;;1.80;49.58;94273.72;5069843;28;20048;-69
2024/01/26 06:05:27;;;;;;;8.75;4.10;;;;;;;1.90;49.98;94292.19;5070849;28;20403;-69
2024/01/26 06:07:52;;;;;;;13.10;3.97;;;;;;;2.06;49.44;94307.03;5070451;28;20039;-69
2024/01/26 06:10:18;;;;;;;6.53;3.17;;;;;;;1.81;50.12;94288.41;5071299;28;20082;-69
2024/01/26 06:12:44;;;;;;;7.88;3.35;;;;;;;1.99;49.81;94309.06;5070349;28;20033;-69
2024/01/26 06:15:09;;;;;;;5.90;2.88;;;;;;;2.08;49.67;94295.25;5069570;28;20033;-69
2024/01/26 06:17:35;;;;;;;11.20;4.75;;;;;;;2.00;49.60;94293.09;5070124;28;20531;-69
2024/01/26 06:20:03;;;;;;;7.00;3.00;;;;;;;1.88;49.97;94310.00;5070617;28;20399;-69
2024/01/26 06:22:28;;;;;;;9.40;3.92;;;;;;;1.82;50.38;94308.31;5071306;28;20025;-69
2024/01/26 06:24:54;;;;;;;7.97;3.05;;;;;;;1.79;50.18;94301.75;5070718;28;20127;-69
2024/01/26 06:27:20;;;;;;;11.23;4.25;;;;;;;1.89;50.00;94314.22;5070462;28;20036;-69
2024/01/26 06:29:46;;;;;;;9.38;4.50;;;;;;;1.56;50.51;94286.31;5070909;28;20033;-69
2024/01/26 06:32:12;;;;;;;8.10;2.90;;;;;;;1.97;50.32;94324.25;5070910;28;20029;-69
2024/01/26 06:34:42;;;;;;;9.02;3.58;;;;;;;1.91;49.82;94314.78;5070708;28;20025;-69
2024/01/26 06:37:07;;;;;;;19.40;4.35;;;;;;;1.81;49.75;94312.81;5071337;28;20029;-69
2024/01/26 06:39:33;;;;;;;14.18;4.72;;;;;;;1.88;49.80;94315.25;5069981;28;20031;-69
2024/01/26 06:41:58;;;;;;;9.23;3.42;;;;;;;1.90;50.30;94339.41;5070256;28;20064;-69
2024/01/26 06:44:24;;;;;;;7.50;3.83;;;;;;;1.93;50.01;94321.34;5070257;28;20032;-69
2024/01/26 06:46:49;;;;;;;9.30;4.00;;;;;;;1.90;49.89;94331.53;5070406;28;20035;-69
2024/01/26 06:49:15;;;;;;;12.77;3.70;;;;;;;1.72;50.32;94337.09;5070458;28;20550;-69
2024/01/26 06:51:40;;;;;;;8.23;4.35;;;;;;;1.78;50.17;94338.72;5069395;28;20037;-69
2024/01/26 06:54:07;;;;;;;5.47;2.95;;;;;;;1.87;49.81;94342.50;5069603;28;20036;-69
2024/01/26 06:56:32;;;;;;;6.13;2.50;;;;;;;2.08;49.08;94342.50;5070550;28;20032;-69
2024/01/26 06:58:58;;;;;;;8.85;3.42;;;;;;;2.00;49.32;94340.31;5068757;28;20036;-68
2024/01/26 07:01:24;;;;;;;7.80;3.10;;;;;;;1.90;49.28;94339.41;5070407;28;20531;-69
2024/01/26 07:03:50;;;;;;;5.68;2.72;;;;;;;2.09;49.00;94340.66;5068704;28;20115;-69
2024/01/26 07:06:15;;;;;;;6.95;3.22;;;;;;;2.00;49.26;94340.31;5069175;28;20115;-70
2024/01/26 07:08:41;;;;;;;9.93;3.40;;;;;;;2.12;48.83;94331.50;5068910;28;20029;-70
2024/01/26 07:11:06;;;;;;;4.80;2.50;;;;;;;2.08;48.80;94339.06;5069246;28;20063;-71
2024/01/26 07:13:32;;;;;;;6.47;3.03;;;;;;;2.10;48.81;94337.00;5070038;28;20024;-69
2024/01/26 07:15:57;;;;;;;5.07;2.90;;;;;;;2.31;48.45;94359.78;5069745;28;20217;-69
2024/01/26 07:18:23;;;;;;;13.13;3.90;;;;;;;2.06;48.42;94333.28;5069759;28;20081;-68
2024/01/26 07:20:48;;;;;;;5.63;2.83;;;;;;;2.25;48.24;94357.38;5069908;28;20119;-68
2024/01/26 07:23:14;;;;;;;5.53;2.53;;;;;;;2.25;48.12;94368.66;5070283;28;20032;-69
2024/01/26 07:25:39;;;;;;;8.82;4.18;;;;;;;2.03;48.66;94357.38;5069976;28;20024;-69
2024/01/26 07:28:07;;;;;;;5.30;3.15;;;;;;;2.11;48.66;94351.69;5070508;28;20384;-69
2024/01/26 07:30:32;;;;;;;6.82;2.72;;;;;;;2.03;48.38;94333.78;5069395;28;20029;-69
2024/01/26 07:32:58;;;;;;;6.22;2.58;;;;;;;2.38;47.87;94378.75;5069256;28;20047;-69
2024/01/26 07:35:23;;;;;;;9.60;3.00;;;;;;;2.47;47.54;94381.72;5070097;28;20086;-68
2024/01/26 07:37:49;;;;;;;6.57;3.08;;;;;;;2.51;47.87;94383.59;5069875;28;20017;-69
2024/01/26 07:40:15;;;;;;;5.90;2.53;;;;;;;2.49;47.59;94375.19;5070417;28;20020;-69
2024/01/26 07:42:40;;;;;;;6.65;3.70;;;;;;;2.55;47.75;94383.13;5069920;28;20037;-69
2024/01/26 07:45:06;;;;;;;6.82;2.40;;;;;;;2.62;47.23;94367.94;5069864;28;20129;-69
2024/01/26 07:47:34;;;;;;;7.20;2.85;;;;;;;2.57;47.43;94394.16;5068370;28;20037;-69
2024/01/26 07:50:01;;;;;;;11.00;3.40;;;;;;;2.51;47.45;94375.72;5069793;28;20119;-69
2024/01/26 07:52:27;;;;;;;12.43;3.60;;;;;;;2.50;47.53;94370.72;5070054;28;20051;-69
2024/01/26 07:54:54;;;;;;;9.23;2.92;;;;;;;2.42;47.49;94390.34;5071211;28;20504;-69
2024/01/26 07:57:20;;;;;;;6.55;2.58;;;;;;;2.59;47.20;94395.50;5073007;28;20032;-69
2024/01/26 07:59:45;;;;;;;6.45;2.42;;;;;;;2.33;47.67;94349.03;5073336;28;20032;-69
2024/01/26 08:02:11;;;;;;;7.93;2.88;;;;;;;2.41;47.18;94362.50;5073322;28;20039;-69
2024/01/26 08:04:36;;;;;;;6.38;2.70;;;;;;;2.38;47.63;94396.34;5072316;28;20690;-69
2024/01/26 08:07:02;;;;;;;5.85;2.30;;;;;;;2.46;47.45;94390.63;5073724;28;20020;-69
2024/01/26 08:09:27;;;;;;;3.97;2.63;;;;;;;2.59;47.39;94405.22;5073305;28;20264;-69
2024/01/26 08:11:53;;;;;;;7.65;2.47;;;;;;;2.45;47.77;94384.56;5073066;28;20024;-69
2024/01/26 08:14:19;;;;;;;12.02;3.35;;;;;;;2.60;47.94;94399.69;5072984;28;20094;-69
2024/01/26 08:16:44;;;;;;;8.50;3.15;;;;;;;2.57;47.41;94396.78;5073300;28;20062;-69
2024/01/26 08:19:09;;;;;;;10.05;3.00;;;;;;;2.56;47.85;94388.09;5073758;28;20069;-69
2024/01/26 08:21:35;;;;;;;10.48;3.60;;;;;;;2.90;47.28;94412.28;5072964;28;20112;-69
2024/01/26 08:24:01;;;;;;;5.28;4.22;;;;;;;2.92;46.81;94399.72;5070938;28;20112;-69
2024/01/26 08:26:26;;;;;;;9.95;3.25;;;;;;;2.69;47.01;94377.22;5072330;28;20025;-69
2024/01/26 08:28:52;;;;;;;8.90;3.72;;;;;;;2.74;47.42;94418.47;5072703;28;20025;-69
2024/01/26 08:31:17;;;;;;;6.90;3.08;;;;;;;2.46;48.02;94406.38;5072093;28;20513;-69
2024/01/26 08:33:43;;;;;;;9.80;3.38;;;;;;;2.24;48.45;94382.03;5072434;28;20051;-70
2024/01/26 08:36:08;;;;;;;10.18;3.35;;;;;;;2.27;48.89;94392.81;5072194;28;20399;-68
2024/01/26 08:38:34;;;;;;;4.18;2.55;;;;;;;2.28;48.85;94398.84;5072432;28;20063;-68
2024/01/26 08:41:00;;;;;;;10.80;4.78;;;;;;;2.28;49.09;94397.03;5072617;28;20040;-68
2024/01/26 08:43:25;;;;;;;7.53;3.63;;;;;;;2.26;49.17;94399.09;5072839;28;20059;-68
2024/01/26 08:45:51;;;;;;;4.90;3.38;;;;;;;2.60;48.64;94401.53;5072119;28;20562;-68
2024/01/26 08:48:16;;;;;;;7.55;2.97;;;;;;;2.59;47.87;94399.97;5071873;28;20036;-68
2024/01/26 08:50:43;;;;;;;9.20;3.88;;;;;;;2.48;48.41;94389.34;5071752;28;20048;-68
2024/01/26 08:53:09;;;;;;;4.63;2.85;;;;;;;2.69;48.49;94410.56;5071922;28;20591;-68
2024/01/26 08:55:35;;;;;;;5.38;2.53;;;;;;;2.78;48.13;94396.72;5072300;28;20103;-68
2024/01/26 08:58:02;;;;;;;5.47;2.05;;;;;;;2.80;48.06;94391.19;5072588;28;20495;-68
2024/01/26 09:00:27;;;;;;;10.68;3.80;;;;;;;2.84;48.23;94400.19;5072335;28;20032;-68
2024/01/26 09:02:53;;;;;;;8.55;2.83;;;;;;;2.82;48.11;94394.38;5070718;28;20029;-68
2024/01/26 09:05:18;;;;;;;4.03;2.67;;;;;;;2.93;48.03;94396.06;5071222;28;20503;-68
2024/01/26 09:07:44;;;;;;;3.83;2.47;;;;;;;3.00;48.06;94408.94;5072011;28;20383;-68
2024/01/26 09:10:10;;;;;;;4.95;2.30;;;;;;;2.96;47.45;94406.03;5071454;28;20016;-68
2024/01/26 09:12:36;;;;;;;5.80;2.22;;;;;;;2.84;47.93;94402.81;5071142;28;20048;-68
2024/01/26 09:15:01;;;;;;;7.13;2.58;;;;;;;2.77;48.22;94396.97;5071324;28;20116;-68
2024/01/26 09:17:27;;;;;;;4.75;2.67;;;;;;;3.07;48.00;94407.72;5070556;28;20035;-68
2024/01/26 09:19:52;;;;;;;5.30;2.22;;;;;;;3.05;48.22;94404.53;5071403;28;20486;-68
2024/01/26 09:22:17;;;;;;;7.95;3.15;;;;;;;3.05;47.78;94399.28;5071667;28;20028;-68
2024/01/26 09:24:43;;;;;;;5.82;2.67;;;;;;;2.93;48.38;94375.03;5071747;28;20028;-68
2024/01/26 09:27:08;;;;;;;5.13;2.60;;;;;;;3.09;48.42;94397.72;5071848;28;20036;-68
2024/01/26 09:29:34;;;;;;;2.90;2.20;;;;;;;3.21;47.69;94387.84;5071675;28;20127;-68
2024/01/26 09:31:59;;;;;;;7.30;2.42;;;;;;;3.42;47.06;94398.50;5071528;28;20132;-68
2024/01/26 09:34:26;;;;;;;5.40;2.22;;;;;;;3.39;46.68;94411.09;5072093;28;20503;-68
2024/01/26 09:36:52;;;;;;;7.38;2.63;;;;;;;3.33;46.79;94411.31;5071221;28;20158;-68
2024/01/26 09:39:17;;;;;;;5.70;2.22;;;;;;;3.18;46.82;94398.88;5071190;28;20511;-68
2024/01/26 09:41:43;;;;;;;6.18;2.10;;;;;;;3.31;46.53;94400.25;5071191;28;20493;-68
2024/01/26 09:44:10;;;;;;;4.57;2.35;;;;;;;2.84;47.16;94372.06;5071409;28;20112;-68
2024/01/26 09:46:35;;;;;;;4.32;2.22;;;;;;;3.08;47.53;94393.53;5070780;28;20042;-68
2024/01/26 09:49:02;;;;;;;3.00;1.90;;;;;;;3.17;46.65;94392.03;5070398;28;20380;-68
2024/01/26 09:51:28;;;;;;;10.38;2.30;;;;;;;3.22;46.68;94393.88;5070911;28;20094;-68
2024/01/26 09:53:59;;;;;;;12.80;2.88;;;;;;;3.28;46.40;94385.78;5071399;28;20077;-68
2024/01/26 09:56:26;;;;;;;5.30;2.60;;;;;;;3.13;47.10;94398.84;5070027;28;20033;-68
2024/01/26 09:58:52;;;;;;;4.43;2.63;;;;;;;3.11;47.25;94366.75;5071032;28;20028;-68
2024/01/26 10:01:22;;;;;;;4.80;2.55;;;;;;;3.15;47.61;94372.28;5071490;28;20055;-68
2024/01/26 10:03:52;;;;;;;3.92;2.42;;;;;;;3.20;46.90;94365.22;5071180;28;20032;-68
2024/01/26 10:06:19;;;;;;;6.55;2.75;;;;;;;3.45;46.37;94369.03;5070666;28;20407;-68
2024/01/26 10:08:44;;;;;;;4.25;1.88;;;;;;;3.34;46.18;94353.22;5070810;28;20024;-68
2024/01/26 10:11:10;;;;;;;4.53;3.00;;;;;;;3.35;46.33;94362.69;5070791;28;20082;-68
2024/01/26 10:13:36;;;;;;;4.13;2.47;;;;;;;3.52;46.14;94345.97;5071132;28;20025;-68
2024/01/26 10:16:09;;;;;;;4.53;2.42;;;;;;;3.47;46.20;94364.34;5071622;28;20096;-68
2024/01/26 10:18:45;;;;;;;3.75;2.50;;;;;;;3.42;45.79;94341.44;5070505;28;20037;-68
2024/01/26 10:21:12;;;;;;;10.77;3.80;;;;;;;3.39;45.94;94369.00;5070021;28;20531;-68
2024/01/26 10:23:38;;;;;;;8.00;3.03;;;;;;;3.34;46.73;94345.31;5070277;28;20058;-68
2024/01/26 10:26:03;;;;;;;4.20;3.00;;;;;;;3.48;45.80;94350.16;5070798;28;20028;-68
2024/01/26 10:28:29;;;;;;;6.03;2.80;;;;;;;3.34;46.53;94332.19;5070971;28;20083;-68
2024/01/26 10:30:55;;;;;;;6.47;3.35;;;;;;;3.36;46.08;94352.97;5070355;28;20085;-68
2024/01/26 10:33:22;;;;;;;4.53;2.60;;;;;;;3.46;46.08;94362.75;5070548;28;20090;-68
2024/01/26 10:35:50;;;;;;;6.63;2.30;;;;;;;3.48;45.91;94350.91;5070037;28;20105;-68
2024/01/26 10:38:16;;;;;;;7.72;3.38;;;;;;;3.51;45.65;94341.72;5069959;28;20029;-68
2024/01/26 10:40:45;;;;;;;7.70;3.60;;;;;;;3.60;45.54;94364.66;5070568;28;20032;-68
2024/01/26 10:43:11;;;;;;;5.90;2.50;;;;;;;3.39;45.97;94326.16;5071227;28;20104;-68
2024/01/26 10:45:41;;;;;;;8.98;2.40;;;;;;;3.21;46.47;94302.94;5070591;28;20119;-68
2024/01/26 10:48:11;;;;;;;7.22;2.75;;;;;;;3.43;46.30;94327.22;5070512;28;20057;-68
2024/01/26 10:50:37;;;;;;;9.38;2.72;;;;;;;3.29;46.51;94323.47;5069790;28;20045;-68
2024/01/26 10:53:07;;;;;;;12.77;3.30;;;;;;;3.50;46.33;94327.00;5068602;28;20055;-68
2024/01/26 10:55:35;;;;;;;5.75;2.50;;;;;;;3.27;45.95;94322.94;5068563;28;20038;-68
2024/01/26 10:58:02;;;;;;;7.00;3.03;;;;;;;3.44;45.86;94341.16;5070131;28;20033;-68
2024/01/26 11:00:28;;;;;;;8.00;3.13;;;;;;;3.41;45.61;94324.06;5068086;28;20064;-68
2024/01/26 11:02:54;;;;;;;6.28;2.75;;;;;;;3.33;45.77;94322.69;5070083;28;20101;-68
2024/01/26 11:05:20;;;;;;;5.28;2.40;;;;;;;3.62;44.70;94338.13;5070012;28;20649;-68
2024/01/26 11:07:47;;;;;;;11.68;2.47;;;;;;;3.21;45.54;94321.34;5070355;28;20046;-68
2024/01/26 11:10:22;;;;;;;6.50;2.63;;;;;;;3.23;45.71;94338.41;5070744;28;20028;-68
2024/01/26 11:12:47;;;;;;;4.38;2.65;;;;;;;3.02;46.82;94314.91;5070431;28;20492;-68
2024/01/26 11:15:13;;;;;;;5.07;1.95;;;;;;;3.08;46.42;94314.69;5070152;28;20116;-68
2024/01/26 11:17:56;;;;;;;5.38;2.67;;;;;;;3.24;46.01;94329.50;5070142;28;20033;-68
2024/01/26 11:20:25;;;;;;;5.40;2.60;;;;;;;2.78;46.58;94301.34;5068794;28;20036;-68
2024/01/26 11:23:03;;;;;;;7.00;3.05;;;;;;;3.06;46.07;94314.16;5069973;28;20043;-68
2024/01/26 11:25:36;;;;;;;5.68;3.10;;;;;;;3.21;45.39;94337.91;5069723;28;20032;-69
2024/01/26 11:28:04;;;;;;;6.30;2.78;;;;;;;3.06;45.38;94331.75;5069360;28;20202;-70
2024/01/26 11:30:29;;;;;;;5.40;2.45;;;;;;;2.84;45.98;94308.22;5070955;28;20047;-70
2024/01/26 11:32:56;;;;;;;5.35;3.40;;;;;;;3.11;45.04;94319.44;5072824;28;20036;-70